sensor_id;sensor_type;location;lat;lon;timestamp;pressure;altitude;pressure_sealevel;temperature;humidity
32197;BME280;18697;42.770;23.400;2022-08-19T00:00:36;95333.50;;;24.68;52.76
32197;BME280;18697;42.770;23.400;2022-08-19T00:03:02;95334.47;;;24.78;52.60
32197;BME280;18697;42.770;23.400;2022-08-19T00:05:28;95346.97;;;24.83;52.78
32197;BME280;18697;42.770;23.400;2022-08-19T00:07:53;95352.09;;;24.92;52.37
32197;BME280;18697;42.770;23.400;2022-08-19T00:10:19;95355.34;;;24.96;52.79
32197;BME280;18697;42.770;23.400;2022-08-19T00:12:46;95360.66;;;25.23;52.16
32197;BME280;18697;42.770;23.400;2022-08-19T00:15:15;95359.31;;;25.39;51.58
32197;BME280;18697;42.770;23.400;2022-08-19T00:17:42;95364.22;;;25.53;50.67
32197;BME280;18697;42.770;23.400;2022-08-19T00:20:10;95360.41;;;25.59;50.67
32197;BME280;18697;42.770;23.400;2022-08-19T00:22:36;95351.88;;;25.81;50.39
32197;BME280;18697;42.770;23.400;2022-08-19T00:25:02;95350.53;;;25.90;49.50
32197;BME280;18697;42.770;23.400;2022-08-19T00:27:27;95344.84;;;25.82;47.91
32197;BME280;18697;42.770;23.400;2022-08-19T00:29:53;95358.88;;;25.80;49.20
32197;BME280;18697;42.770;23.400;2022-08-19T00:32:18;95358.34;;;25.74;48.52
32197;BME280;18697;42.770;23.400;2022-08-19T00:34:44;95358.69;;;25.78;49.41
32197;BME280;18697;42.770;23.400;2022-08-19T00:37:09;95367.03;;;25.84;49.30
32197;BME280;18697;42.770;23.400;2022-08-19T00:39:35;95344.84;;;25.82;49.26
32197;BME280;18697;42.770;23.400;2022-08-19T00:42:00;95348.66;;;25.77;49.38
32197;BME280;18697;42.770;23.400;2022-08-19T00:44:28;95349.81;;;25.74;49.15
32197;BME280;18697;42.770;23.400;2022-08-19T00:46:56;95350.94;;;25.79;48.93
32197;BME280;18697;42.770;23.400;2022-08-19T00:49:26;95341.44;;;25.76;49.90
32197;BME280;18697;42.770;23.400;2022-08-19T00:51:57;95353.03;;;25.71;49.03
32197;BME280;18697;42.770;23.400;2022-08-19T00:54:25;95347.56;;;25.42;49.79
32197;BME280;18697;42.770;23.400;2022-08-19T00:56:52;95344.13;;;25.44;50.20
32197;BME280;18697;42.770;23.400;2022-08-19T00:59:18;95349.81;;;25.44;49.38
32197;BME280;18697;42.770;23.400;2022-08-19T01:01:44;95353.44;;;25.37;48.97
32197;BME280;18697;42.770;23.400;2022-08-19T01:04:11;95349.63;;;25.42;49.01
32197;BME280;18697;42.770;23.400;2022-08-19T01:06:38;95353.84;;;25.10;50.77
32197;BME280;18697;42.770;23.400;2022-08-19T01:09:05;95346.44;;;25.07;50.01
32197;BME280;18697;42.770;23.400;2022-08-19T01:11:34;95343.56;;;24.77;52.25
32197;BME280;18697;42.770;23.400;2022-08-19T01:14:00;95333.16;;;24.87;52.17
32197;BME280;18697;42.770;23.400;2022-08-19T01:16:27;95335.47;;;24.96;50.09
32197;BME280;18697;42.770;23.400;2022-08-19T01:18:54;95343.41;;;25.05;51.04
32197;BME280;18697;42.770;23.400;2022-08-19T01:22:05;95339.59;;;24.95;50.20
32197;BME280;18697;42.770;23.400;2022-08-19T01:24:10;95347.88;;;24.63;52.54
32197;BME280;18697;42.770;23.400;2022-08-19T01:26:40;95341.81;;;24.43;51.99
32197;BME280;18697;42.770;23.400;2022-08-19T01:29:08;95356.59;;;24.65;52.46
32197;BME280;18697;42.770;23.400;2022-08-19T01:31:34;95346.59;;;24.79;52.32
32197;BME280;18697;42.770;23.400;2022-08-19T01:34:01;95343.75;;;24.94;51.82
32197;BME280;18697;42.770;23.400;2022-08-19T01:38:52;95344.56;;;25.10;50.12
32197;BME280;18697;42.770;23.400;2022-08-19T01:41:18;95345.13;;;25.16;51.11
32197;BME280;18697;42.770;23.400;2022-08-19T01:43:44;95343.03;;;25.16;50.94
32197;BME280;18697;42.770;23.400;2022-08-19T01:46:10;95348.16;;;25.18;50.41
32197;BME280;18697;42.770;23.400;2022-08-19T01:48:41;95351.38;;;25.14;50.49
32197;BME280;18697;42.770;23.400;2022-08-19T01:51:08;95350.63;;;25.06;50.50
32197;BME280;18697;42.770;23.400;2022-08-19T01:53:35;95350.44;;;25.04;50.70
32197;BME280;18697;42.770;23.400;2022-08-19T01:56:01;95355.75;;;25.15;50.77
32197;BME280;18697;42.770;23.400;2022-08-19T01:58:36;95359.91;;;25.22;48.88
32197;BME280;18697;42.770;23.400;2022-08-19T02:01:05;95355.53;;;25.21;49.57
32197;BME280;18697;42.770;23.400;2022-08-19T02:03:30;95357.63;;;25.13;49.88
32197;BME280;18697;42.770;23.400;2022-08-19T02:05:58;95360.09;;;25.16;50.44
32197;BME280;18697;42.770;23.400;2022-08-19T02:08:26;95358.00;;;25.09;49.09
32197;BME280;18697;42.770;23.400;2022-08-19T02:10:52;95354.97;;;25.07;50.55
32197;BME280;18697;42.770;23.400;2022-08-19T02:13:18;95351.75;;;25.03;50.50
32197;BME280;18697;42.770;23.400;2022-08-19T02:15:43;95356.69;;;25.03;50.64
32197;BME280;18697;42.770;23.400;2022-08-19T02:18:09;95362.16;;;25.01;50.61
32197;BME280;18697;42.770;23.400;2022-08-19T02:20:35;95369.38;;;25.02;50.31
32197;BME280;18697;42.770;23.400;2022-08-19T02:23:01;95371.84;;;25.05;50.42
32197;BME280;18697;42.770;23.400;2022-08-19T02:25:26;95372.59;;;24.98;50.04
32197;BME280;18697;42.770;23.400;2022-08-19T02:27:52;95367.81;;;24.85;50.49
32197;BME280;18697;42.770;23.400;2022-08-19T02:30:18;95356.03;;;24.74;51.13
32197;BME280;18697;42.770;23.400;2022-08-19T02:32:44;95355.66;;;24.77;50.21
32197;BME280;18697;42.770;23.400;2022-08-19T02:35:10;95356.81;;;24.74;50.47
32197;BME280;18697;42.770;23.400;2022-08-19T02:37:35;95355.84;;;24.64;51.18
32197;BME280;18697;42.770;23.400;2022-08-19T02:40:19;95355.97;;;24.36;52.26
32197;BME280;18697;42.770;23.400;2022-08-19T02:42:45;95354.81;;;24.31;51.91
32197;BME280;18697;42.770;23.400;2022-08-19T02:45:12;95349.91;;;24.32;51.91
32197;BME280;18697;42.770;23.400;2022-08-19T02:47:37;95357.09;;;24.33;52.38
32197;BME280;18697;42.770;23.400;2022-08-19T02:50:04;95354.81;;;24.31;52.65
32197;BME280;18697;42.770;23.400;2022-08-19T02:52:31;95354.09;;;24.38;51.73
32197;BME280;18697;42.770;23.400;2022-08-19T02:54:57;95354.09;;;24.38;50.81
32197;BME280;18697;42.770;23.400;2022-08-19T02:57:23;95367.25;;;24.20;51.79
32197;BME280;18697;42.770;23.400;2022-08-19T02:59:49;95363.19;;;24.01;52.61
32197;BME280;18697;42.770;23.400;2022-08-19T03:02:15;95356.81;;;23.43;55.02
32197;BME280;18697;42.770;23.400;2022-08-19T03:04:41;95366.41;;;22.91;57.46
32197;BME280;18697;42.770;23.400;2022-08-19T03:07:07;95368.16;;;23.22;56.19
32197;BME280;18697;42.770;23.400;2022-08-19T03:09:33;95370.53;;;23.11;57.01
32197;BME280;18697;42.770;23.400;2022-08-19T03:12:02;95371.00;;;23.22;56.05
32197;BME280;18697;42.770;23.400;2022-08-19T03:14:30;95369.13;;;22.97;56.86
32197;BME280;18697;42.770;23.400;2022-08-19T03:16:56;95363.88;;;23.01;57.06
32197;BME280;18697;42.770;23.400;2022-08-19T03:19:22;95362.34;;;23.00;56.79
32197;BME280;18697;42.770;23.400;2022-08-19T03:21:48;95367.09;;;22.84;57.27
32197;BME280;18697;42.770;23.400;2022-08-19T03:24:14;95362.03;;;22.69;58.86
32197;BME280;18697;42.770;23.400;2022-08-19T03:26:42;95359.97;;;22.70;58.10
32197;BME280;18697;42.770;23.400;2022-08-19T03:29:08;95371.63;;;22.66;58.91
32197;BME280;18697;42.770;23.400;2022-08-19T03:31:36;95369.78;;;23.10;57.17
32197;BME280;18697;42.770;23.400;2022-08-19T03:34:02;95364.47;;;23.56;55.79
32197;BME280;18697;42.770;23.400;2022-08-19T03:36:28;95370.69;;;23.90;55.01
32197;BME280;18697;42.770;23.400;2022-08-19T03:38:57;95372.34;;;24.22;53.72
32197;BME280;18697;42.770;23.400;2022-08-19T03:41:29;95367.34;;;24.43;52.73
32197;BME280;18697;42.770;23.400;2022-08-19T03:43:56;95375.13;;;24.50;52.30
32197;BME280;18697;42.770;23.400;2022-08-19T03:46:25;95385.91;;;24.52;52.19
32197;BME280;18697;42.770;23.400;2022-08-19T03:48:52;95394.44;;;24.60;51.36
32197;BME280;18697;42.770;23.400;2022-08-19T03:51:32;95400.53;;;24.71;51.07
32197;BME280;18697;42.770;23.400;2022-08-19T03:54:01;95400.16;;;24.75;50.85
32197;BME280;18697;42.770;23.400;2022-08-19T03:56:27;95403.38;;;24.71;50.69
32197;BME280;18697;42.770;23.400;2022-08-19T03:58:55;95397.09;;;24.65;50.48
32197;BME280;18697;42.770;23.400;2022-08-19T04:01:24;95410.34;;;24.63;50.39
32197;BME280;18697;42.770;23.400;2022-08-19T04:03:54;95411.88;;;24.64;50.78
32197;BME280;18697;42.770;23.400;2022-08-19T04:06:22;95413.56;;;24.59;51.47
32197;BME280;18697;42.770;23.400;2022-08-19T04:08:50;95414.69;;;24.48;51.13
32197;BME280;18697;42.770;23.400;2022-08-19T04:11:20;95419.97;;;24.52;51.36
32197;BME280;18697;42.770;23.400;2022-08-19T04:13:46;95412.63;;;24.64;51.33
32197;BME280;18697;42.770;23.400;2022-08-19T04:16:12;95413.00;;;24.68;50.96
32197;BME280;18697;42.770;23.400;2022-08-19T04:18:39;95418.50;;;24.66;50.97
32197;BME280;18697;42.770;23.400;2022-08-19T04:21:06;95417.75;;;24.66;51.23
32197;BME280;18697;42.770;23.400;2022-08-19T04:23:32;95419.03;;;24.49;51.64
32197;BME280;18697;42.770;23.400;2022-08-19T04:25:59;95412.84;;;24.22;52.18
32197;BME280;18697;42.770;23.400;2022-08-19T04:28:24;95420.03;;;23.87;53.29
32197;BME280;18697;42.770;23.400;2022-08-19T04:30:53;95420.50;;;23.71;54.06
32197;BME280;18697;42.770;23.400;2022-08-19T04:33:21;95426.19;;;23.71;54.43
32197;BME280;18697;42.770;23.400;2022-08-19T04:35:49;95416.47;;;23.95;53.94
32197;BME280;18697;42.770;23.400;2022-08-19T04:38:17;95410.13;;;24.09;53.25
32197;BME280;18697;42.770;23.400;2022-08-19T04:40:45;95419.63;;;24.19;53.24
32197;BME280;18697;42.770;23.400;2022-08-19T04:43:29;95404.63;;;24.04;53.58
32197;BME280;18697;42.770;23.400;2022-08-19T04:45:55;95405.44;;;23.83;55.58
32197;BME280;18697;42.770;23.400;2022-08-19T04:48:21;95410.50;;;23.77;55.11
32197;BME280;18697;42.770;23.400;2022-08-19T04:50:57;95412.00;;;23.71;55.09
32197;BME280;18697;42.770;23.400;2022-08-19T04:53:25;95413.22;;;23.54;56.02
32197;BME280;18697;42.770;23.400;2022-08-19T04:55:52;95424.19;;;23.37;57.41
32197;BME280;18697;42.770;23.400;2022-08-19T04:58:17;95415.44;;;23.07;58.56
32197;BME280;18697;42.770;23.400;2022-08-19T05:00:43;95419.78;;;23.08;58.33
32197;BME280;18697;42.770;23.400;2022-08-19T05:03:09;95426.75;;;23.07;58.19
32197;BME280;18697;42.770;23.400;2022-08-19T05:05:39;95433.19;;;23.28;58.54
32197;BME280;18697;42.770;23.400;2022-08-19T05:08:05;95434.41;;;22.78;60.63
32197;BME280;18697;42.770;23.400;2022-08-19T05:10:31;95435.72;;;22.77;60.87
32197;BME280;18697;42.770;23.400;2022-08-19T05:12:56;95441.38;;;22.77;61.19
32197;BME280;18697;42.770;23.400;2022-08-19T05:15:22;95433.59;;;23.11;58.72
32197;BME280;18697;42.770;23.400;2022-08-19T05:17:47;95427.16;;;23.52;57.07
32197;BME280;18697;42.770;23.400;2022-08-19T05:20:33;95429.34;;;23.96;56.37
32197;BME280;18697;42.770;23.400;2022-08-19T05:23:17;95429.56;;;24.34;54.83
32197;BME280;18697;42.770;23.400;2022-08-19T05:25:42;95434.78;;;24.66;53.90
32197;BME280;18697;42.770;23.400;2022-08-19T05:28:08;95428.22;;;24.86;53.61
32197;BME280;18697;42.770;23.400;2022-08-19T05:30:34;95425.81;;;25.13;52.58
32197;BME280;18697;42.770;23.400;2022-08-19T05:32:59;95424.47;;;25.29;51.94
32197;BME280;18697;42.770;23.400;2022-08-19T05:35:25;95426.00;;;25.38;51.87
32197;BME280;18697;42.770;23.400;2022-08-19T05:37:50;95421.84;;;25.54;51.58
32197;BME280;18697;42.770;23.400;2022-08-19T05:40:15;95420.31;;;25.53;52.51
32197;BME280;18697;42.770;23.400;2022-08-19T05:42:41;95429.03;;;25.55;52.11
32197;BME280;18697;42.770;23.400;2022-08-19T05:45:07;95424.09;;;25.63;51.34
32197;BME280;18697;42.770;23.400;2022-08-19T05:47:33;95427.91;;;25.58;51.77
32197;BME280;18697;42.770;23.400;2022-08-19T05:49:58;95422.44;;;25.68;51.31
32197;BME280;18697;42.770;23.400;2022-08-19T05:52:24;95423.34;;;25.63;51.28
32197;BME280;18697;42.770;23.400;2022-08-19T05:54:49;95420.16;;;25.66;51.29
32197;BME280;18697;42.770;23.400;2022-08-19T05:57:16;95424.31;;;25.58;51.26
32197;BME280;18697;42.770;23.400;2022-08-19T05:59:41;95419.19;;;25.26;52.00
32197;BME280;18697;42.770;23.400;2022-08-19T06:02:07;95416.72;;;25.30;51.33
32197;BME280;18697;42.770;23.400;2022-08-19T06:04:33;95424.69;;;25.39;51.92
32197;BME280;18697;42.770;23.400;2022-08-19T06:06:59;95422.59;;;25.01;52.10
32197;BME280;18697;42.770;23.400;2022-08-19T06:09:26;95428.47;;;25.11;53.10
32197;BME280;18697;42.770;23.400;2022-08-19T06:11:54;95424.31;;;25.19;52.61
32197;BME280;18697;42.770;23.400;2022-08-19T06:14:24;95430.19;;;25.21;53.21
32197;BME280;18697;42.770;23.400;2022-08-19T06:16:50;95434.34;;;25.13;53.08
32197;BME280;18697;42.770;23.400;2022-08-19T06:19:21;95430.19;;;25.14;53.23
32197;BME280;18697;42.770;23.400;2022-08-19T06:21:49;95435.84;;;24.99;54.18
32197;BME280;18697;42.770;23.400;2022-08-19T06:24:21;95434.53;;;25.07;54.08
32197;BME280;18697;42.770;23.400;2022-08-19T06:26:52;95438.16;;;25.23;54.20
32197;BME280;18697;42.770;23.400;2022-08-19T06:29:20;95437.00;;;25.34;53.98
32197;BME280;18697;42.770;23.400;2022-08-19T06:31:48;95431.72;;;25.23;54.04
32197;BME280;18697;42.770;23.400;2022-08-19T06:34:17;95433.34;;;24.95;54.43
32197;BME280;18697;42.770;23.400;2022-08-19T06:36:47;95436.25;;;25.18;54.33
32197;BME280;18697;42.770;23.400;2022-08-19T06:39:16;95430.94;;;25.52;54.01
32197;BME280;18697;42.770;23.400;2022-08-19T06:41:44;95427.72;;;25.71;53.44
32197;BME280;18697;42.770;23.400;2022-08-19T06:44:11;95436.25;;;25.86;53.23
32197;BME280;18697;42.770;23.400;2022-08-19T06:46:38;95435.84;;;25.98;51.39
32197;BME280;18697;42.770;23.400;2022-08-19T06:49:04;95440.25;;;25.68;52.63
32197;BME280;18697;42.770;23.400;2022-08-19T06:51:30;95431.31;;;25.95;52.77
32197;BME280;18697;42.770;23.400;2022-08-19T06:53:57;95434.47;;;26.14;49.09
32197;BME280;18697;42.770;23.400;2022-08-19T06:56:27;95434.25;;;26.19;48.54
32197;BME280;18697;42.770;23.400;2022-08-19T06:59:01;95433.28;;;26.40;50.84
32197;BME280;18697;42.770;23.400;2022-08-19T07:01:26;95434.63;;;26.31;49.30
32197;BME280;18697;42.770;23.400;2022-08-19T07:03:52;95434.28;;;26.12;48.89
32197;BME280;18697;42.770;23.400;2022-08-19T07:06:19;95439.75;;;26.33;48.22
32197;BME280;18697;42.770;23.400;2022-08-19T07:08:47;95445.53;;;26.58;50.99
32197;BME280;18697;42.770;23.400;2022-08-19T07:11:15;95437.44;;;26.39;49.61
32197;BME280;18697;42.770;23.400;2022-08-19T07:13:41;95440.66;;;26.83;49.24
32197;BME280;18697;42.770;23.400;2022-08-19T07:16:12;95435.84;;;26.93;47.08
32197;BME280;18697;42.770;23.400;2022-08-19T07:18:38;95426.59;;;26.52;47.49
32197;BME280;18697;42.770;23.400;2022-08-19T07:21:08;95430.34;;;26.63;47.52
32197;BME280;18697;42.770;23.400;2022-08-19T07:23:34;95431.56;;;26.29;47.48
32197;BME280;18697;42.770;23.400;2022-08-19T07:26:07;95429.47;;;26.45;46.88
32197;BME280;18697;42.770;23.400;2022-08-19T07:28:33;95432.31;;;26.77;47.06
32197;BME280;18697;42.770;23.400;2022-08-19T07:30:58;95432.00;;;27.06;47.01
32197;BME280;18697;42.770;23.400;2022-08-19T07:33:27;95431.03;;;27.36;46.29
32197;BME280;18697;42.770;23.400;2022-08-19T07:35:52;95425.97;;;27.76;46.91
32197;BME280;18697;42.770;23.400;2022-08-19T07:38:17;95418.00;;;27.92;45.35
32197;BME280;18697;42.770;23.400;2022-08-19T07:40:44;95427.72;;;27.72;43.60
32197;BME280;18697;42.770;23.400;2022-08-19T07:43:11;95419.66;;;27.78;44.12
32197;BME280;18697;42.770;23.400;2022-08-19T07:45:36;95427.31;;;27.75;43.74
32197;BME280;18697;42.770;23.400;2022-08-19T07:48:03;95426.88;;;27.79;43.41
32197;BME280;18697;42.770;23.400;2022-08-19T07:50:29;95423.75;;;27.67;43.15
32197;BME280;18697;42.770;23.400;2022-08-19T07:52:54;95424.19;;;27.81;45.07
32197;BME280;18697;42.770;23.400;2022-08-19T07:55:22;95432.06;;;28.32;45.76
32197;BME280;18697;42.770;23.400;2022-08-19T07:57:48;95426.22;;;28.74;44.83
32197;BME280;18697;42.770;23.400;2022-08-19T08:00:14;95417.88;;;29.13;42.58
32197;BME280;18697;42.770;23.400;2022-08-19T08:02:40;95413.06;;;29.16;42.62
32197;BME280;18697;42.770;23.400;2022-08-19T08:05:08;95416.28;;;29.29;44.82
32197;BME280;18697;42.770;23.400;2022-08-19T08:07:52;95414.63;;;29.53;42.78
32197;BME280;18697;42.770;23.400;2022-08-19T08:10:36;95424.72;;;29.54;41.81
32197;BME280;18697;42.770;23.400;2022-08-19T08:13:02;95424.84;;;29.47;41.74
32197;BME280;18697;42.770;23.400;2022-08-19T08:15:30;95420.03;;;29.49;42.50
32197;BME280;18697;42.770;23.400;2022-08-19T08:17:55;95411.19;;;29.74;43.51
32197;BME280;18697;42.770;23.400;2022-08-19T08:20:22;95406.91;;;29.46;41.87
32197;BME280;18697;42.770;23.400;2022-08-19T08:22:48;95413.38;;;29.47;43.67
32197;BME280;18697;42.770;23.400;2022-08-19T08:25:32;95412.28;;;29.98;42.84
32197;BME280;18697;42.770;23.400;2022-08-19T08:27:58;95402.41;;;30.18;42.59
32197;BME280;18697;42.770;23.400;2022-08-19T08:30:26;95398.09;;;29.81;41.28
32197;BME280;18697;42.770;23.400;2022-08-19T08:32:52;95403.00;;;30.26;42.87
32197;BME280;18697;42.770;23.400;2022-08-19T08:35:21;95395.63;;;30.62;41.59
32197;BME280;18697;42.770;23.400;2022-08-19T08:37:48;95402.25;;;30.74;41.03
32197;BME280;18697;42.770;23.400;2022-08-19T08:43:27;95396.00;;;30.97;41.85
32197;BME280;18697;42.770;23.400;2022-08-19T08:46:03;95389.25;;;31.33;38.82
32197;BME280;18697;42.770;23.400;2022-08-19T08:51:29;95388.28;;;31.50;39.70
32197;BME280;18697;42.770;23.400;2022-08-19T08:53:59;95374.97;;;31.85;39.34
32197;BME280;18697;42.770;23.400;2022-08-19T08:56:24;95366.53;;;31.99;37.25
32197;BME280;18697;42.770;23.400;2022-08-19T08:59:01;95376.09;;;32.13;37.86
32197;BME280;18697;42.770;23.400;2022-08-19T09:01:27;95367.78;;;32.39;37.36
32197;BME280;18697;42.770;23.400;2022-08-19T09:03:52;95368.22;;;32.56;36.90
32197;BME280;18697;42.770;23.400;2022-08-19T09:17:08;95354.09;;;33.05;33.93
32197;BME280;18697;42.770;23.400;2022-08-19T09:19:56;95348.09;;;32.56;33.52
32197;BME280;18697;42.770;23.400;2022-08-19T09:22:20;95351.72;;;32.24;33.80
32197;BME280;18697;42.770;23.400;2022-08-19T09:24:50;95343.38;;;32.73;34.38
32197;BME280;18697;42.770;23.400;2022-08-19T09:27:18;95338.09;;;33.02;35.94
32197;BME280;18697;42.770;23.400;2022-08-19T09:29:43;95335.50;;;32.61;34.10
32197;BME280;18697;42.770;23.400;2022-08-19T09:32:09;95335.75;;;32.65;34.53
32197;BME280;18697;42.770;23.400;2022-08-19T09:34:34;95335.34;;;33.16;36.06
32197;BME280;18697;42.770;23.400;2022-08-19T09:37:00;95325.88;;;33.37;33.00
32197;BME280;18697;42.770;23.400;2022-08-19T09:39:26;95324.72;;;33.53;33.60
32197;BME280;18697;42.770;23.400;2022-08-19T09:41:51;95329.97;;;33.80;34.11
32197;BME280;18697;42.770;23.400;2022-08-19T09:44:18;95329.53;;;34.09;31.91
32197;BME280;18697;42.770;23.400;2022-08-19T09:46:45;95317.66;;;34.28;32.07
32197;BME280;18697;42.770;23.400;2022-08-19T09:49:15;95320.19;;;34.34;30.81
32197;BME280;18697;42.770;23.400;2022-08-19T09:51:42;95316.84;;;34.51;30.53
32197;BME280;18697;42.770;23.400;2022-08-19T09:54:07;95312.00;;;34.68;31.12
32197;BME280;18697;42.770;23.400;2022-08-19T09:56:33;95314.53;;;34.87;31.35
32197;BME280;18697;42.770;23.400;2022-08-19T09:58:59;95300.22;;;34.64;28.38
32197;BME280;18697;42.770;23.400;2022-08-19T10:01:26;95295.88;;;34.25;29.01
32197;BME280;18697;42.770;23.400;2022-08-19T10:03:56;95297.66;;;33.82;28.88
32197;BME280;18697;42.770;23.400;2022-08-19T10:06:23;95293.78;;;33.89;29.81
32197;BME280;18697;42.770;23.400;2022-08-19T10:08:51;95286.88;;;33.94;29.87
32197;BME280;18697;42.770;23.400;2022-08-19T10:11:19;95290.19;;;34.14;30.26
32197;BME280;18697;42.770;23.400;2022-08-19T10:13:45;95284.31;;;34.12;30.32
32197;BME280;18697;42.770;23.400;2022-08-19T10:16:14;95288.59;;;34.24;30.23
32197;BME280;18697;42.770;23.400;2022-08-19T10:18:41;95281.56;;;34.39;28.53
32197;BME280;18697;42.770;23.400;2022-08-19T10:23:44;95287.16;;;34.49;28.61
32197;BME280;18697;42.770;23.400;2022-08-19T10:26:12;95280.28;;;34.68;29.04
32197;BME280;18697;42.770;23.400;2022-08-19T10:28:38;95278.78;;;34.41;29.86
32197;BME280;18697;42.770;23.400;2022-08-19T10:31:16;95270.25;;;34.43;28.70
32197;BME280;18697;42.770;23.400;2022-08-19T10:33:43;95276.03;;;34.43;28.81
32197;BME280;18697;42.770;23.400;2022-08-19T10:36:14;95269.44;;;34.04;28.57
32197;BME280;18697;42.770;23.400;2022-08-19T10:38:41;95269.94;;;34.00;28.75
32197;BME280;18697;42.770;23.400;2022-08-19T10:41:08;95260.94;;;33.94;28.57
32197;BME280;18697;42.770;23.400;2022-08-19T10:43:34;95266.38;;;34.13;29.67
32197;BME280;18697;42.770;23.400;2022-08-19T10:46:04;95259.56;;;34.20;28.72
32197;BME280;18697;42.770;23.400;2022-08-19T10:48:31;95263.06;;;33.93;28.59
32197;BME280;18697;42.770;23.400;2022-08-19T10:50:57;95255.28;;;34.21;28.42
32197;BME280;18697;42.770;23.400;2022-08-19T10:53:41;95249.44;;;34.45;29.03
32197;BME280;18697;42.770;23.400;2022-08-19T10:56:07;95253.63;;;34.81;28.39
32197;BME280;18697;42.770;23.400;2022-08-19T10:58:51;95246.91;;;35.04;28.27
32197;BME280;18697;42.770;23.400;2022-08-19T11:01:16;95253.75;;;35.10;27.49
32197;BME280;18697;42.770;23.400;2022-08-19T11:03:41;95251.78;;;35.40;27.95
32197;BME280;18697;42.770;23.400;2022-08-19T11:06:08;95249.31;;;35.62;28.53
32197;BME280;18697;42.770;23.400;2022-08-19T11:08:34;95254.50;;;35.93;28.16
32197;BME280;18697;42.770;23.400;2022-08-19T11:11:01;95244.25;;;35.08;28.02
32197;BME280;18697;42.770;23.400;2022-08-19T11:13:30;95249.81;;;34.90;28.56
32197;BME280;18697;42.770;23.400;2022-08-19T11:15:58;95245.75;;;34.56;28.73
32197;BME280;18697;42.770;23.400;2022-08-19T11:18:24;95245.09;;;34.97;28.32
32197;BME280;18697;42.770;23.400;2022-08-19T11:20:49;95247.66;;;35.04;27.52
32197;BME280;18697;42.770;23.400;2022-08-19T11:23:14;95241.06;;;35.15;27.61
32197;BME280;18697;42.770;23.400;2022-08-19T11:25:40;95235.47;;;34.92;28.19
32197;BME280;18697;42.770;23.400;2022-08-19T11:28:05;95239.59;;;34.75;28.67
32197;BME280;18697;42.770;23.400;2022-08-19T11:30:30;95226.81;;;35.06;28.26
32197;BME280;18697;42.770;23.400;2022-08-19T11:32:57;95227.59;;;35.20;27.88
32197;BME280;18697;42.770;23.400;2022-08-19T11:35:22;95220.22;;;35.44;27.84
32197;BME280;18697;42.770;23.400;2022-08-19T11:37:48;95216.94;;;35.93;28.67
32197;BME280;18697;42.770;23.400;2022-08-19T11:40:14;95217.44;;;36.03;26.80
32197;BME280;18697;42.770;23.400;2022-08-19T11:42:39;95218.03;;;36.15;27.42
32197;BME280;18697;42.770;23.400;2022-08-19T11:45:22;95211.06;;;36.20;28.17
32197;BME280;18697;42.770;23.400;2022-08-19T11:47:47;95210.56;;;36.40;27.54
32197;BME280;18697;42.770;23.400;2022-08-19T11:50:14;95205.72;;;36.60;26.76
32197;BME280;18697;42.770;23.400;2022-08-19T11:52:39;95207.38;;;36.04;26.53
32197;BME280;18697;42.770;23.400;2022-08-19T11:55:05;95200.75;;;36.02;26.39
32197;BME280;18697;42.770;23.400;2022-08-19T11:57:31;95194.13;;;36.29;26.61
32197;BME280;18697;42.770;23.400;2022-08-19T11:59:56;95203.09;;;36.05;27.07
32197;BME280;18697;42.770;23.400;2022-08-19T12:02:22;95195.56;;;35.84;27.10
32197;BME280;18697;42.770;23.400;2022-08-19T12:04:48;95191.19;;;35.70;26.69
32197;BME280;18697;42.770;23.400;2022-08-19T12:07:14;95187.09;;;35.75;26.95
32197;BME280;18697;42.770;23.400;2022-08-19T12:09:40;95185.19;;;35.66;27.62
32197;BME280;18697;42.770;23.400;2022-08-19T12:12:06;95184.69;;;35.99;28.57
32197;BME280;18697;42.770;23.400;2022-08-19T12:14:31;95177.22;;;35.94;26.80
32197;BME280;18697;42.770;23.400;2022-08-19T12:16:57;95176.06;;;35.42;27.84
32197;BME280;18697;42.770;23.400;2022-08-19T12:19:23;95174.56;;;35.54;27.70
32197;BME280;18697;42.770;23.400;2022-08-19T12:21:50;95179.16;;;35.46;27.65
32197;BME280;18697;42.770;23.400;2022-08-19T12:24:16;95166.19;;;35.61;27.23
32197;BME280;18697;42.770;23.400;2022-08-19T12:26:48;95164.91;;;35.64;26.78
32197;BME280;18697;42.770;23.400;2022-08-19T12:29:14;95164.97;;;35.79;27.15
32197;BME280;18697;42.770;23.400;2022-08-19T12:31:40;95165.72;;;35.66;26.97
32197;BME280;18697;42.770;23.400;2022-08-19T12:34:05;95158.28;;;35.61;26.25
32197;BME280;18697;42.770;23.400;2022-08-19T12:36:31;95153.34;;;35.64;27.38
32197;BME280;18697;42.770;23.400;2022-08-19T12:38:58;95161.22;;;35.77;26.27
32197;BME280;18697;42.770;23.400;2022-08-19T12:41:25;95156.66;;;36.01;27.75
32197;BME280;18697;42.770;23.400;2022-08-19T12:43:51;95149.88;;;36.10;26.82
32197;BME280;18697;42.770;23.400;2022-08-19T12:46:18;95153.88;;;36.03;26.24
32197;BME280;18697;42.770;23.400;2022-08-19T12:48:43;95144.53;;;35.46;27.49
32197;BME280;18697;42.770;23.400;2022-08-19T12:51:12;95151.13;;;35.62;26.49
32197;BME280;18697;42.770;23.400;2022-08-19T12:53:38;95135.53;;;35.83;26.69
32197;BME280;18697;42.770;23.400;2022-08-19T12:56:04;95146.78;;;36.06;26.32
32197;BME280;18697;42.770;23.400;2022-08-19T12:58:30;95148.72;;;36.02;26.50
32197;BME280;18697;42.770;23.400;2022-08-19T13:00:56;95149.53;;;35.88;25.94
32197;BME280;18697;42.770;23.400;2022-08-19T13:03:22;95141.22;;;35.67;26.47
32197;BME280;18697;42.770;23.400;2022-08-19T13:05:53;95149.09;;;35.94;26.43
32197;BME280;18697;42.770;23.400;2022-08-19T13:08:19;95134.25;;;35.86;26.01
32197;BME280;18697;42.770;23.400;2022-08-19T13:10:44;95131.78;;;36.10;26.38
32197;BME280;18697;42.770;23.400;2022-08-19T13:13:10;95138.06;;;36.20;27.71